This is the latest recevied weather packets stored in our database for station/object N0EDB-13. If no packets are shown the sender has not sent any weather packets the latest 10 day(s).
| Time | Temp. | Humidity | Pressure | Rain* | Wind** | Luminosity | Snow |
|---|---|---|---|---|---|---|---|
| 1777400151 | 11.67° C | 54% | 1498.3 hPa | 0 mm | - | 532 W/m² | - |
| 1777399851 | 11.11° C | 59% | 1499.9 hPa | 0 mm | - | 620 W/m² | - |
| 1777399550 | 11.67° C | 58% | 1499.2 hPa | 0 mm | - | 602 W/m² | - |
| 1777399250 | 11.11° C | 59% | 1499.5 hPa | 0 mm | - | 891 W/m² | - |
| 1777398950 | 11.11° C | 62% | 1501 hPa | 0 mm | - | 456 W/m² | - |
| 1777398649 | 10.56° C | 63% | 1501.9 hPa | 0 mm | - | 529 W/m² | - |
| 1777398348 | 10° C | 63% | 1502.7 hPa | 0 mm | - | 996 W/m² | - |
| 1777398048 | 10° C | 69% | 1504.5 hPa | 0 mm | - | 999 W/m² | - |
| 1777397748 | 10° C | 68% | 1504.4 hPa | 0 mm | - | 699 W/m² | - |
| 1777397447 | 9.44° C | 68% | 1505.3 hPa | 0 mm | - | 946 W/m² | - |
| 1777397147 | 8.89° C | 69% | 1506.9 hPa | 0 mm | - | 978 W/m² | - |
| 1777396846 | 8.33° C | 71% | 1508.4 hPa | 0 mm | - | 999 W/m² | - |
| 1777396544 | 8.33° C | 72% | 1509 hPa | 0 mm | - | 375 W/m² | - |
| 1777396242 | 7.78° C | 75% | 1509.8 hPa | 0 mm | - | 949 W/m² | - |
| 1777395941 | 7.78° C | 75% | 1510.7 hPa | 0 mm | - | 999 W/m² | - |
| 1777395640 | 7.22° C | 80% | 1512.1 hPa | 0 mm | - | 514 W/m² | - |
| 1777395340 | 6.67° C | 78% | 1513 hPa | 0 mm | - | 393 W/m² | - |
| 1777395039 | 6.67° C | 78% | 1513.9 hPa | 0 mm | - | 373 W/m² | - |
| 1777394739 | 6.67° C | 81% | 1514.5 hPa | 0 mm | - | 335 W/m² | - |
| 1777394438 | 6.67° C | 79% | 1514.2 hPa | 0 mm | - | 150 W/m² | - |
| 1777394137 | 6.67° C | 79% | 1513.9 hPa | 0 mm | - | 400 W/m² | - |
| 1777393837 | 6.11° C | 80% | 1514.3 hPa | 0 mm | - | 371 W/m² | - |
| 1777393537 | 6.11° C | 82% | 1515 hPa | 0 mm | - | 428 W/m² | - |
| 1777393237 | 6.11° C | 82% | 1515.2 hPa | 0 mm | - | 376 W/m² | - |
| 1777392936 | 6.11° C | 82% | 1515.1 hPa | 0 mm | - | 321 W/m² | - |
* Rain latest hour (hover to see other rain measurements)
** Current wind speed in m/s (hover to see current wind gust speed)